Time;durP1;ratioP1;P1;durP2;ratioP2;P2;SDS_P1;SDS_P2;PMS_P1;PMS_P2;Temp;Humidity;BMP_temperature;BMP_pressure;BME280_temperature;BME280_humidity;BME280_pressure;Samples;Min_cycle;Max_cycle;Signal;HPM_P1;HPM_P2
2021/03/03 00:00:06;;;;;;;;;;;;;;;-0.73;88.59;94296.00;1360800;39;20096;31
2021/03/03 00:01:20;;;;;;;;;;;;;;;-0.73;88.76;94296.00;1417527;40;20120;31
2021/03/03 00:02:34;;;;;;;;;;;;;;;-0.76;87.53;94297.38;1326115;39;21286;31
2021/03/03 00:03:34;;;;;;;;;;;;;;;-0.80;87.97;94299.09;1046601;49;20262;-85
2021/03/03 00:04:34;;;;;;;;;;;;;;;-0.85;88.29;94294.78;1043062;57;20203;-85
2021/03/03 00:05:35;;;;;;;;;;;;;;;-0.92;88.27;94291.09;1044832;57;20172;-86
2021/03/03 00:07:40;;;;;;;;;;;;;;;-0.89;88.27;94298.34;1054325;48;20275;-86
2021/03/03 00:08:40;;;;;;;;;;;;;;;-0.89;88.40;94295.72;1048151;56;20285;-84
2021/03/03 00:09:42;;;;;;;;;;;;;;;-0.95;88.36;94295.13;1045838;56;20208;-87
2021/03/03 00:10:42;;;;;;;;;;;;;;;-0.96;88.71;94304.09;1049453;56;20160;-85
2021/03/03 00:11:46;;;;;;;;;;;;;;;-0.94;88.13;94306.41;1266825;39;20186;31
2021/03/03 00:12:50;;;;;;;;;;;;;;;-0.91;87.56;94303.16;1430794;39;20195;31
2021/03/03 00:14:53;;;;;;;;;;;;;;;-0.96;87.41;94292.84;1047651;49;20980;-88
2021/03/03 00:16:09;;;;;;;;;;;;;;;-0.92;87.79;94298.97;1419770;39;20569;31
2021/03/03 00:17:13;;;;;;;;;;;;;;;-0.94;87.87;94299.31;1424574;39;41113;31
2021/03/03 00:18:27;;;;;;;;;;;;;;;-0.96;88.07;94301.47;1403428;40;20635;31
2021/03/03 00:19:31;;;;;;;;;;;;;;;-0.92;87.74;94299.78;1426711;39;20211;31
2021/03/03 00:20:35;;;;;;;;;;;;;;;-0.98;88.07;94287.88;1166525;39;20204;31
2021/03/03 00:21:39;;;;;;;;;;;;;;;-0.88;88.01;94298.06;1293505;39;20465;31
2021/03/03 00:22:53;;;;;;;;;;;;;;;-0.83;87.59;94305.75;1432020;39;20092;31
2021/03/03 00:23:57;;;;;;;;;;;;;;;-0.92;87.68;94294.53;1439523;39;20277;31
2021/03/03 00:26:03;;;;;;;;;;;;;;;-0.98;88.26;94298.38;1441918;39;20507;31
2021/03/03 00:27:07;;;;;;;;;;;;;;;-0.98;88.05;94303.62;1056690;39;20279;31
2021/03/03 00:28:11;;;;;;;;;;;;;;;-0.98;87.76;94302.88;1260038;39;20580;31
2021/03/03 00:29:25;;;;;;;;;;;;;;;-1.00;87.99;94299.81;1426372;39;20262;31
2021/03/03 00:30:29;;;;;;;;;;;;;;;-1.03;88.49;94303.81;1430309;39;20325;31
2021/03/03 00:31:33;;;;;;;;;;;;;;;-1.03;88.52;94299.31;1426809;39;20182;31
2021/03/03 00:32:37;;;;;;;;;;;;;;;-1.07;88.73;94311.53;1392934;39;20262;31
2021/03/03 00:33:41;;;;;;;;;;;;;;;-1.09;88.67;94316.31;1417228;39;20239;31
2021/03/03 00:34:55;;;;;;;;;;;;;;;-1.08;88.78;94317.09;1427284;39;20785;31
2021/03/03 00:35:59;;;;;;;;;;;;;;;-1.11;88.33;94302.72;1418675;39;20331;31
2021/03/03 00:37:13;;;;;;;;;;;;;;;-1.11;87.71;94307.97;1415579;39;20264;31
2021/03/03 00:38:27;;;;;;;;;;;;;;;-1.15;88.41;94311.53;1417889;39;20228;31
2021/03/03 00:39:41;;;;;;;;;;;;;;;-1.14;88.16;94311.25;1418487;39;20243;31
2021/03/03 00:40:42;;;;;;;;;;;;;;;-1.16;88.95;94305.53;1415685;39;20350;31
2021/03/03 00:41:56;;;;;;;;;;;;;;;-1.11;88.72;94312.47;1426836;39;20276;31
2021/03/03 00:43:10;;;;;;;;;;;;;;;-1.13;88.92;94304.16;1423526;39;22143;31
2021/03/03 00:44:24;;;;;;;;;;;;;;;-1.10;89.25;94299.06;1430882;39;21248;31
2021/03/03 00:45:38;;;;;;;;;;;;;;;-1.14;89.08;94298.13;1430096;39;20198;31
2021/03/03 00:46:52;;;;;;;;;;;;;;;-1.14;89.41;94303.38;1430267;39;20234;31
2021/03/03 00:48:06;;;;;;;;;;;;;;;-1.20;88.79;94301.97;1422800;39;21300;31
2021/03/03 00:49:10;;;;;;;;;;;;;;;-1.15;88.94;94299.19;1421567;39;20248;31
2021/03/03 00:51:26;;;;;;;;;;;;;;;-1.18;89.14;94301.69;1423610;39;20243;31
2021/03/03 00:52:31;;;;;;;;;;;;;;;-1.18;88.35;94291.97;1423107;39;20249;31
2021/03/03 00:53:35;;;;;;;;;;;;;;;-1.16;88.12;94297.66;1429055;39;21228;31
2021/03/03 00:54:49;;;;;;;;;;;;;;;-1.18;89.01;94297.22;1424565;39;21653;31
2021/03/03 00:56:03;;;;;;;;;;;;;;;-1.19;89.20;94295.66;1433859;39;21141;31
2021/03/03 00:57:17;;;;;;;;;;;;;;;-1.18;88.85;94296.44;1418926;39;21195;31
2021/03/03 00:58:32;;;;;;;;;;;;;;;-1.17;88.97;94295.34;1425487;39;20238;31
2021/03/03 00:59:47;;;;;;;;;;;;;;;-1.20;89.38;94298.59;1432556;39;20241;31
2021/03/03 01:00:51;;;;;;;;;;;;;;;-1.19;89.25;94302.75;1426843;39;21208;31
2021/03/03 01:01:55;;;;;;;;;;;;;;;-1.20;89.17;94291.50;1410769;39;22400;31
2021/03/03 01:04:13;;;;;;;;;;;;;;;-1.17;89.30;94292.72;1430017;39;20277;31
2021/03/03 01:05:27;;;;;;;;;;;;;;;-1.15;88.86;94291.31;1428982;39;20547;31
2021/03/03 01:06:41;;;;;;;;;;;;;;;-1.17;89.10;94288.25;1421618;39;20217;31
2021/03/03 01:07:55;;;;;;;;;;;;;;;-1.16;88.73;94289.78;1416255;39;20556;31
2021/03/03 01:09:09;;;;;;;;;;;;;;;-1.14;88.85;94292.87;1415380;39;20526;31
2021/03/03 01:10:23;;;;;;;;;;;;;;;-1.13;89.02;94283.94;1423250;39;20225;31
2021/03/03 01:11:24;;;;;;;;;;;;;;;-1.16;88.83;94284.53;1419744;39;20254;31
2021/03/03 01:14:49;;;;;;;;;;;;;;;-1.18;89.43;94278.84;1426047;39;20326;31
2021/03/03 01:15:53;;;;;;;;;;;;;;;-1.16;89.19;94281.91;1421933;39;22157;31
2021/03/03 01:16:57;;;;;;;;;;;;;;;-1.12;89.18;94279.44;1443080;39;20220;31
2021/03/03 01:18:11;;;;;;;;;;;;;;;-1.12;89.42;94274.19;1420257;39;20522;31
2021/03/03 01:19:13;;;;;;;;;;;;;;;-1.08;89.52;94275.13;1428979;39;22320;31
2021/03/03 01:22:39;;;;;;;;;;;;;;;-1.07;89.56;94279.28;1446541;39;20217;31
2021/03/03 01:23:43;;;;;;;;;;;;;;;-1.11;89.62;94281.75;1424677;39;21571;31
2021/03/03 01:24:57;;;;;;;;;;;;;;;-1.07;89.33;94292.41;1415091;39;22514;31
2021/03/03 01:26:01;;;;;;;;;;;;;;;-1.02;89.74;94282.50;1425367;39;21368;31
2021/03/03 01:29:11;;;;;;;;;;;;;;;-1.07;89.45;94282.66;1448543;39;21267;31
2021/03/03 01:32:34;;;;;;;;;;;;;;;-1.15;89.19;94285.31;1425910;39;20213;31
2021/03/03 01:33:38;;;;;;;;;;;;;;;-1.19;89.27;94284.37;1443720;39;20206;31
2021/03/03 01:36:46;;;;;;;;;;;;;;;-1.23;89.67;94280.84;1441038;39;20249;31
2021/03/03 01:40:08;;;;;;;;;;;;;;;-1.27;90.45;94283.34;1448637;39;20287;31
2021/03/03 01:41:22;;;;;;;;;;;;;;;-1.28;89.39;94276.53;1432215;39;20299;31
2021/03/03 01:42:26;;;;;;;;;;;;;;;-1.28;88.89;94276.53;1431804;39;20548;31
2021/03/03 01:44:34;;;;;;;;;;;;;;;-1.32;89.37;94276.41;1434256;39;22414;31
2021/03/03 01:45:48;;;;;;;;;;;;;;;-1.28;89.38;94268.66;1424679;39;20191;31
2021/03/03 01:47:02;;;;;;;;;;;;;;;-1.32;88.81;94265.12;1428496;39;20237;31
2021/03/03 01:48:06;;;;;;;;;;;;;;;-1.32;89.12;94270.37;1418636;39;20987;31
2021/03/03 01:49:20;;;;;;;;;;;;;;;-1.31;89.15;94264.84;1421333;39;20215;31
2021/03/03 01:50:24;;;;;;;;;;;;;;;-1.23;89.44;94265.88;1426574;39;20517;31
2021/03/03 01:51:28;;;;;;;;;;;;;;;-1.21;89.27;94271.59;1420485;39;20534;31
2021/03/03 01:52:32;;;;;;;;;;;;;;;-1.24;89.14;94268.81;1417179;39;20607;31
2021/03/03 01:53:46;;;;;;;;;;;;;;;-1.26;89.12;94266.53;1423345;39;22061;31
2021/03/03 01:54:50;;;;;;;;;;;;;;;-1.33;90.04;94276.72;1416713;39;20792;31
2021/03/03 01:58:00;;;;;;;;;;;;;;;-1.35;89.48;94266.53;1427851;39;21419;31
2021/03/03 02:01:13;;;;;;;;;;;;;;;-1.39;90.03;94267.47;1435146;39;20973;31
2021/03/03 02:03:30;;;;;;;;;;;;;;;-1.45;90.19;94271.31;1436863;39;22336;31
2021/03/03 02:04:47;;;;;;;;;;;;;;;-1.46;90.50;94265.31;1426925;39;22317;31
2021/03/03 02:07:59;;;;;;;;;;;;;;;-1.33;89.83;94266.97;1115498;39;20131;31
2021/03/03 02:11:23;;;;;;;;;;;;;;;-1.39;89.19;94263.00;1441844;39;20616;31
2021/03/03 02:12:37;;;;;;;;;;;;;;;-1.46;89.24;94270.56;1430693;39;21155;31
2021/03/03 02:14:53;;;;;;;;;;;;;;;-1.47;89.10;94278.75;1434074;39;22496;31
2021/03/03 02:18:16;;;;;;;;;;;;;;;-1.52;89.68;94267.34;1445804;39;20258;31
2021/03/03 02:19:25;;;;;;;;;;;;;;;-1.50;90.24;94276.72;1429876;39;20249;31
2021/03/03 02:20:31;;;;;;;;;;;;;;;-1.49;90.05;94273.03;1426881;39;20238;31
2021/03/03 02:21:45;;;;;;;;;;;;;;;-1.51;90.49;94273.34;1429404;39;20269;31
2021/03/03 02:22:51;;;;;;;;;;;;;;;-1.52;89.91;94266.56;1422819;39;21172;31
2021/03/03 02:24:05;;;;;;;;;;;;;;;-1.55;89.58;94267.19;1431001;39;20219;31
2021/03/03 02:25:19;;;;;;;;;;;;;;;-1.56;89.88;94263.78;1422611;39;21243;31
2021/03/03 02:26:35;;;;;;;;;;;;;;;-1.54;89.96;94264.25;1423086;39;20243;31
2021/03/03 02:27:49;;;;;;;;;;;;;;;-1.56;89.73;94258.53;1430824;39;20226;31
2021/03/03 02:29:03;;;;;;;;;;;;;;;-1.53;89.61;94263.19;1418962;39;22083;31
2021/03/03 02:30:07;;;;;;;;;;;;;;;-1.54;90.06;94259.03;1433821;39;21316;31
2021/03/03 02:32:25;;;;;;;;;;;;;;;-1.54;90.10;94260.84;1432600;39;20229;31
2021/03/03 02:33:39;;;;;;;;;;;;;;;-1.58;89.81;94268.59;1431816;39;20226;31
2021/03/03 02:34:53;;;;;;;;;;;;;;;-1.59;89.78;94263.63;1431751;39;21351;31
2021/03/03 02:36:07;;;;;;;;;;;;;;;-1.57;89.29;94258.88;1430862;39;20217;31
2021/03/03 02:37:12;;;;;;;;;;;;;;;-1.60;89.65;94259.47;1431699;39;20250;31
2021/03/03 02:39:23;;;;;;;;;;;;;;;-1.60;89.83;94262.09;1438754;39;21182;31
2021/03/03 02:40:25;;;;;;;;;;;;;;;-1.59;90.62;94250.53;1422377;39;20235;31
2021/03/03 02:41:31;;;;;;;;;;;;;;;-1.59;90.31;94259.16;1424150;39;21167;31
2021/03/03 02:42:45;;;;;;;;;;;;;;;-1.58;90.01;94258.09;1412006;39;21232;31
2021/03/03 02:43:49;;;;;;;;;;;;;;;-1.58;90.06;94249.44;1420838;39;20306;31
2021/03/03 02:45:03;;;;;;;;;;;;;;;-1.54;90.31;94252.97;1436667;39;20576;31
2021/03/03 02:55:51;;;;;;;;;;;;;;;-1.48;90.37;94251.75;1446722;39;20229;31
2021/03/03 02:57:05;;;;;;;;;;;;;;;-1.46;90.25;94246.19;1429653;39;20325;31
2021/03/03 02:58:09;;;;;;;;;;;;;;;-1.48;90.19;94251.00;1423640;39;22208;31
2021/03/03 02:59:23;;;;;;;;;;;;;;;-1.50;90.20;94253.91;1410992;39;20256;31
2021/03/03 03:00:29;;;;;;;;;;;;;;;-1.53;89.14;94260.56;1420818;39;20203;31
2021/03/03 03:01:43;;;;;;;;;;;;;;;-1.54;89.66;94253.78;1427271;39;20207;31
2021/03/03 03:02:57;;;;;;;;;;;;;;;-1.53;89.64;94257.16;1420014;39;22231;31
2021/03/03 03:04:11;;;;;;;;;;;;;;;-1.53;89.78;94255.31;1426895;39;20227;31
2021/03/03 03:05:16;;;;;;;;;;;;;;;-1.54;89.43;94259.03;1424397;39;20239;31
2021/03/03 03:06:21;;;;;;;;;;;;;;;-1.52;90.03;94259.47;1422390;39;20630;31
2021/03/03 03:07:35;;;;;;;;;;;;;;;-1.52;90.22;94256.84;1426709;39;21192;31
2021/03/03 03:08:49;;;;;;;;;;;;;;;-1.55;89.56;94256.69;1425091;39;21267;31
2021/03/03 03:09:50;;;;;;;;;;;;;;;-1.53;89.61;94257.94;1410948;39;20258;31
2021/03/03 03:12:00;;;;;;;;;;;;;;;-1.53;89.74;94254.53;1439299;39;20237;31
2021/03/03 03:13:07;;;;;;;;;;;;;;;-1.44;90.02;94252.69;1426123;39;20179;31
2021/03/03 03:14:21;;;;;;;;;;;;;;;-1.49;89.34;94249.44;1411274;39;21416;31
2021/03/03 03:15:35;;;;;;;;;;;;;;;-1.53;89.46;94250.06;1421130;39;20231;31
2021/03/03 03:16:39;;;;;;;;;;;;;;;-1.53;89.78;94250.06;1299618;39;20263;31
2021/03/03 03:17:45;;;;;;;;;;;;;;;-1.51;90.42;94255.00;1425110;39;20261;31
2021/03/03 03:18:50;;;;;;;;;;;;;;;-1.49;90.09;94249.44;1350046;39;20218;31
2021/03/03 03:20:58;;;;;;;;;;;;;;;-1.50;90.34;94256.53;1426299;39;20318;31
2021/03/03 03:22:00;;;;;;;;;;;;;;;-1.53;89.92;94251.94;1421748;39;20334;31
2021/03/03 03:23:14;;;;;;;;;;;;;;;-1.52;89.81;94256.09;1421926;39;20472;31
2021/03/03 03:24:19;;;;;;;;;;;;;;;-1.48;89.22;94258.84;1434222;39;20206;31
2021/03/03 03:25:23;;;;;;;;;;;;;;;-1.50;89.71;94251.28;1434573;39;20237;31
2021/03/03 03:26:28;;;;;;;;;;;;;;;-1.51;89.72;94255.00;1418472;39;20243;31
2021/03/03 03:27:42;;;;;;;;;;;;;;;-1.48;89.54;94257.00;1423681;39;20264;31
2021/03/03 03:28:56;;;;;;;;;;;;;;;-1.42;89.85;94250.50;1425082;39;20230;31
2021/03/03 03:30:00;;;;;;;;;;;;;;;-1.44;90.21;94252.69;1418218;39;20206;31
2021/03/03 03:31:10;;;;;;;;;;;;;;;-1.45;90.35;94243.25;1417067;39;20235;31
2021/03/03 03:32:14;;;;;;;;;;;;;;;-1.47;90.19;94253.28;1430367;39;21282;31
2021/03/03 03:33:19;;;;;;;;;;;;;;;-1.49;90.28;94252.84;1414011;39;21198;31
2021/03/03 03:34:23;;;;;;;;;;;;;;;-1.44;90.04;94246.66;1424607;39;20651;31
2021/03/03 03:35:37;;;;;;;;;;;;;;;-1.40;89.62;94247.59;1420149;39;20243;31
2021/03/03 03:37:45;;;;;;;;;;;;;;;-1.48;89.52;94241.28;1432729;39;20245;31
2021/03/03 03:41:08;;;;;;;;;;;;;;;-1.45;89.82;94247.72;1435206;39;20269;31
2021/03/03 03:42:13;;;;;;;;;;;;;;;-1.50;90.05;94242.66;1423585;39;20245;31
2021/03/03 03:43:17;;;;;;;;;;;;;;;-1.48;89.74;94251.75;1436164;39;20979;31
2021/03/03 03:44:22;;;;;;;;;;;;;;;-1.49;89.76;94246.81;1427651;39;20816;31
2021/03/03 03:45:36;;;;;;;;;;;;;;;-1.50;89.91;94255.75;1351909;39;20265;31
2021/03/03 03:46:50;;;;;;;;;;;;;;;-1.52;90.04;94251.59;1424703;39;20902;31
2021/03/03 03:48:04;;;;;;;;;;;;;;;-1.51;89.62;94252.38;1432458;39;21109;31
2021/03/03 03:49:07;;;;;;;;;;;;;;;-1.53;89.70;94257.94;1286702;39;20210;31
2021/03/03 03:50:11;;;;;;;;;;;;;;;-1.47;89.75;94258.53;1424636;39;20234;31
2021/03/03 03:51:25;;;;;;;;;;;;;;;-1.53;89.33;94260.56;1425167;39;20274;31
2021/03/03 03:52:29;;;;;;;;;;;;;;;-1.52;89.19;94248.97;1424431;39;20249;31
2021/03/03 03:53:34;;;;;;;;;;;;;;;-1.52;89.26;94256.84;1426653;39;21258;31
2021/03/03 03:54:36;;;;;;;;;;;;;;;-1.50;89.29;94255.75;1427281;39;20228;31
2021/03/03 03:56:43;;;;;;;;;;;;;;;-1.46;89.38;94265.31;1432759;39;20213;31
2021/03/03 03:57:57;;;;;;;;;;;;;;;-1.46;89.89;94256.69;1421090;39;20248;31
2021/03/03 03:59:11;;;;;;;;;;;;;;;-1.43;90.16;94258.69;1424444;39;20238;31
2021/03/03 04:00:25;;;;;;;;;;;;;;;-1.44;89.76;94262.41;1301413;39;20543;31
2021/03/03 04:01:29;;;;;;;;;;;;;;;-1.40;89.68;94255.44;1291874;39;20253;31
2021/03/03 04:02:33;;;;;;;;;;;;;;;-1.48;89.60;94261.47;1425860;39;21028;31
2021/03/03 04:05:45;;;;;;;;;;;;;;;-1.51;89.36;94262.84;1445154;39;20226;31
2021/03/03 04:06:49;;;;;;;;;;;;;;;-1.53;88.96;94263.19;1414030;39;20289;31
2021/03/03 04:08:03;;;;;;;;;;;;;;;-1.53;89.55;94262.41;1425341;39;20228;31
2021/03/03 04:09:17;;;;;;;;;;;;;;;-1.52;89.30;94264.72;1428684;39;20223;31
2021/03/03 04:10:26;;;;;;;;;;;;;;;-1.49;88.82;94262.53;1420766;39;20327;31
2021/03/03 04:11:30;;;;;;;;;;;;;;;-1.49;89.46;94259.91;1354027;39;20222;31
2021/03/03 04:13:48;;;;;;;;;;;;;;;-1.45;89.35;94268.69;1431426;39;21272;31
2021/03/03 04:15:02;;;;;;;;;;;;;;;-1.47;89.20;94261.16;1419386;39;20339;31
2021/03/03 04:16:07;;;;;;;;;;;;;;;-1.54;89.31;94261.66;1424848;39;20274;31
2021/03/03 04:17:21;;;;;;;;;;;;;;;-1.54;89.47;94253.78;1415396;39;20200;31
2021/03/03 04:18:25;;;;;;;;;;;;;;;-1.57;89.84;94257.00;1426436;39;20334;31
2021/03/03 04:19:39;;;;;;;;;;;;;;;-1.54;90.29;94259.03;1422539;39;20261;31
2021/03/03 04:20:53;;;;;;;;;;;;;;;-1.59;90.17;94251.28;1419972;39;20235;31
2021/03/03 04:21:57;;;;;;;;;;;;;;;-1.59;90.05;94250.53;1429575;39;22164;31
2021/03/03 04:24:05;;;;;;;;;;;;;;;-1.54;89.87;94251.16;1430060;39;21300;31
2021/03/03 04:25:10;;;;;;;;;;;;;;;-1.56;90.31;94249.91;1431427;39;21821;31
2021/03/03 04:26:25;;;;;;;;;;;;;;;-1.47;90.19;94261.16;1426477;39;20214;31
2021/03/03 04:27:39;;;;;;;;;;;;;;;-1.57;89.90;94257.00;1421853;39;20219;31
2021/03/03 04:28:43;;;;;;;;;;;;;;;-1.58;90.24;94257.31;1426064;39;20582;31
2021/03/03 04:29:48;;;;;;;;;;;;;;;-1.57;90.20;94257.00;1425400;39;20196;31
2021/03/03 04:32:06;;;;;;;;;;;;;;;-1.58;90.14;94249.44;1429478;39;20222;31
2021/03/03 04:33:10;;;;;;;;;;;;;;;-1.57;90.09;94259.63;1421126;39;21146;31
2021/03/03 04:34:14;;;;;;;;;;;;;;;-1.50;89.98;94253.13;1420042;39;21214;31
2021/03/03 04:35:28;;;;;;;;;;;;;;;-1.49;89.50;94254.66;1424209;39;21552;31
2021/03/03 04:36:32;;;;;;;;;;;;;;;-1.54;89.88;94253.78;1428018;39;21207;31
2021/03/03 04:38:40;;;;;;;;;;;;;;;-1.58;89.96;94258.09;1436878;39;20241;31
2021/03/03 04:39:44;;;;;;;;;;;;;;;-1.57;90.10;94254.41;1434024;39;20499;31
2021/03/03 04:40:48;;;;;;;;;;;;;;;-1.58;90.50;94252.84;1425628;39;20220;31
2021/03/03 04:45:01;;;;;;;;;;;;;;;-1.58;89.87;94245.00;1440641;39;20656;31
2021/03/03 04:46:05;;;;;;;;;;;;;;;-1.53;90.11;94247.44;1422367;39;22383;31
2021/03/03 04:47:19;;;;;;;;;;;;;;;-1.43;89.46;94242.97;1407445;39;20251;31
2021/03/03 04:48:33;;;;;;;;;;;;;;;-1.51;90.03;94249.75;1417775;39;20214;31
2021/03/03 04:49:37;;;;;;;;;;;;;;;-1.49;89.90;94244.97;1423818;39;20230;31
2021/03/03 04:50:51;;;;;;;;;;;;;;;-1.51;89.69;94252.38;1424213;39;20326;31
2021/03/03 04:52:05;;;;;;;;;;;;;;;-1.48;89.60;94251.75;1435082;39;20322;31
2021/03/03 04:53:19;;;;;;;;;;;;;;;-1.51;90.43;94252.38;1425244;39;22407;31
2021/03/03 04:54:34;;;;;;;;;;;;;;;-1.53;89.75;94244.81;1431892;39;20208;31
2021/03/03 04:55:38;;;;;;;;;;;;;;;-1.58;89.68;94245.00;1424964;39;20686;31
2021/03/03 04:57:55;;;;;;;;;;;;;;;-1.49;89.45;94238.94;1439397;39;20202;31
2021/03/03 04:58:59;;;;;;;;;;;;;;;-1.53;89.69;94234.34;1432609;39;22176;31
2021/03/03 05:00:04;;;;;;;;;;;;;;;-1.52;89.36;94233.25;1411125;39;20211;31
2021/03/03 05:01:18;;;;;;;;;;;;;;;-1.47;89.16;94232.31;1421388;39;20227;31
2021/03/03 05:02:33;;;;;;;;;;;;;;;-1.41;89.59;94236.31;1422194;39;20222;31
2021/03/03 05:03:37;;;;;;;;;;;;;;;-1.41;89.17;94230.28;1436559;39;20210;31
2021/03/03 05:04:41;;;;;;;;;;;;;;;-1.43;89.50;94233.22;1424054;39;20249;31
2021/03/03 05:05:45;;;;;;;;;;;;;;;-1.33;89.08;94232.13;1346316;39;20411;31
2021/03/03 05:06:49;;;;;;;;;;;;;;;-1.42;89.71;94236.63;1413852;40;20251;31
2021/03/03 05:07:53;;;;;;;;;;;;;;;-1.47;90.03;94234.16;1415039;39;20239;31
2021/03/03 05:11:14;;;;;;;;;;;;;;;-1.54;90.40;94245.13;1172805;39;20235;31
2021/03/03 05:12:28;;;;;;;;;;;;;;;-1.53;89.86;94244.06;1413968;39;20228;31
2021/03/03 05:13:42;;;;;;;;;;;;;;;-1.48;89.75;94238.66;1410181;39;21352;31
2021/03/03 05:14:46;;;;;;;;;;;;;;;-1.51;89.15;94234.03;1423164;39;21141;31
2021/03/03 05:21:21;;;;;;;;;;;;;;;-1.56;89.99;94239.44;1441582;39;20198;31
2021/03/03 05:22:35;;;;;;;;;;;;;;;-1.59;90.39;94238.19;1428818;39;22469;31
2021/03/03 05:23:49;;;;;;;;;;;;;;;-1.64;90.21;94237.59;1432468;39;20222;31
2021/03/03 05:24:51;;;;;;;;;;;;;;;-1.63;90.31;94239.87;1428767;39;20230;31
2021/03/03 05:26:09;;;;;;;;;;;;;;;-1.61;90.09;94235.12;1414314;39;21350;31
2021/03/03 05:27:23;;;;;;;;;;;;;;;-1.55;90.25;94226.00;1426982;39;21184;31
2021/03/03 05:28:27;;;;;;;;;;;;;;;-1.61;90.31;94224.63;1410480;39;20230;31
2021/03/03 05:29:41;;;;;;;;;;;;;;;-1.62;90.34;94230.97;1426212;39;20217;31
2021/03/03 05:30:55;;;;;;;;;;;;;;;-1.62;90.74;94232.81;1416449;39;21220;31
2021/03/03 05:32:09;;;;;;;;;;;;;;;-1.65;90.10;94226.34;1411835;39;21459;31
2021/03/03 05:33:23;;;;;;;;;;;;;;;-1.66;90.21;94230.03;1419291;39;20216;31
2021/03/03 05:34:37;;;;;;;;;;;;;;;-1.60;89.97;94234.03;1416154;39;20575;31
2021/03/03 05:35:52;;;;;;;;;;;;;;;-1.57;90.28;94224.78;1424084;39;21089;31
2021/03/03 05:37:06;;;;;;;;;;;;;;;-1.46;89.47;94225.22;1416260;39;20342;31
2021/03/03 05:38:20;;;;;;;;;;;;;;;-1.50;90.45;94226.91;1409067;39;20252;31
2021/03/03 05:39:24;;;;;;;;;;;;;;;-1.53;90.03;94225.72;1434025;39;21109;31
2021/03/03 05:40:28;;;;;;;;;;;;;;;-1.59;90.19;94232.94;1427391;39;21382;31
2021/03/03 05:41:42;;;;;;;;;;;;;;;-1.58;90.18;94228.47;1423367;39;20573;31
2021/03/03 05:42:44;;;;;;;;;;;;;;;-1.58;90.30;94228.47;1283385;39;20235;31
2021/03/03 05:43:58;;;;;;;;;;;;;;;-1.60;90.43;94234.03;1343027;39;20268;31
2021/03/03 05:45:12;;;;;;;;;;;;;;;-1.59;90.29;94229.56;1427662;39;22535;31
2021/03/03 05:46:26;;;;;;;;;;;;;;;-1.56;89.65;94226.31;1427379;39;21217;31
2021/03/03 05:47:40;;;;;;;;;;;;;;;-1.57;90.18;94232.66;1417766;39;20259;31
2021/03/03 05:48:56;;;;;;;;;;;;;;;-1.60;90.34;94230.66;1430708;39;20435;31
2021/03/03 05:50:10;;;;;;;;;;;;;;;-1.55;90.06;94231.25;1438434;39;21308;31
2021/03/03 05:51:24;;;;;;;;;;;;;;;-1.52;89.97;94235.88;1427329;39;21222;31
2021/03/03 05:52:28;;;;;;;;;;;;;;;-1.51;89.94;94234.03;1422737;39;22989;31
2021/03/03 05:53:42;;;;;;;;;;;;;;;-1.54;89.90;94227.56;1434745;39;20214;31
2021/03/03 05:54:46;;;;;;;;;;;;;;;-1.55;90.31;94231.25;1430484;39;22371;31
2021/03/03 05:57:09;;;;;;;;;;;;;;;-1.55;90.51;94223.37;1427650;39;20211;31
2021/03/03 05:58:23;;;;;;;;;;;;;;;-1.50;90.13;94224.31;1424555;39;20239;31
2021/03/03 05:59:37;;;;;;;;;;;;;;;-1.54;90.40;94235.44;1437542;39;20223;31
2021/03/03 06:00:51;;;;;;;;;;;;;;;-1.57;90.15;94222.94;1423878;39;20319;31
2021/03/03 06:02:05;;;;;;;;;;;;;;;-1.53;90.19;94228.34;1419679;39;21165;31
2021/03/03 06:03:07;;;;;;;;;;;;;;;-1.49;90.42;94233.69;1429506;39;22519;31
2021/03/03 06:04:11;;;;;;;;;;;;;;;-1.47;89.96;94223.69;1419333;39;20300;31
2021/03/03 06:05:15;;;;;;;;;;;;;;;-1.46;90.24;94228.59;1422433;39;20253;31
2021/03/03 06:06:29;;;;;;;;;;;;;;;-1.43;89.54;94229.84;1421902;39;21868;31
2021/03/03 06:07:34;;;;;;;;;;;;;;;-1.42;90.14;94226.91;1422970;39;22395;31
2021/03/03 06:08:38;;;;;;;;;;;;;;;-1.39;90.46;94225.53;1426560;39;22336;31
2021/03/03 06:10:56;;;;;;;;;;;;;;;-1.35;90.01;94229.06;1430374;39;20231;31
2021/03/03 06:12:10;;;;;;;;;;;;;;;-1.28;89.48;94229.34;1424881;39;20746;31
2021/03/03 06:13:24;;;;;;;;;;;;;;;-1.32;89.61;94234.47;1423679;39;22153;31
2021/03/03 06:14:29;;;;;;;;;;;;;;;-1.33;90.13;94230.28;1424910;39;22298;31
2021/03/03 06:15:43;;;;;;;;;;;;;;;-1.32;89.76;94237.06;1430411;39;21376;31
2021/03/03 06:16:57;;;;;;;;;;;;;;;-1.19;89.04;94229.31;1427578;39;20231;31
2021/03/03 06:18:11;;;;;;;;;;;;;;;-1.17;89.04;94233.16;1426941;39;20233;31
2021/03/03 06:19:25;;;;;;;;;;;;;;;-1.21;89.26;94234.09;1249058;39;20199;31
2021/03/03 06:20:31;;;;;;;;;;;;;;;-1.22;89.18;94230.72;1413430;39;21106;31
2021/03/03 06:21:35;;;;;;;;;;;;;;;-1.31;89.39;94238.63;1423690;39;20212;31
2021/03/03 06:22:39;;;;;;;;;;;;;;;-1.24;90.01;94238.13;1418552;39;20196;31
2021/03/03 06:23:53;;;;;;;;;;;;;;;-1.25;90.05;94233.97;1419769;39;20276;31
2021/03/03 06:25:07;;;;;;;;;;;;;;;-1.22;89.41;94237.81;1420306;39;22364;31
2021/03/03 06:26:11;;;;;;;;;;;;;;;-1.23;89.23;94244.13;1417556;39;21746;31
2021/03/03 06:27:15;;;;;;;;;;;;;;;-1.24;89.68;94240.75;1423339;39;22816;31
2021/03/03 06:28:29;;;;;;;;;;;;;;;-1.14;89.00;94239.63;1424505;39;20242;31
2021/03/03 06:29:50;;;;;;;;;;;;;;;-1.18;88.69;94234.25;1422673;39;20294;31
2021/03/03 06:30:55;;;;;;;;;;;;;;;-1.18;88.51;94233.50;1430728;39;20226;31
2021/03/03 06:33:18;;;;;;;;;;;;;;;-1.14;88.75;94237.00;1441860;39;21741;31
2021/03/03 06:34:23;;;;;;;;;;;;;;;-1.25;89.02;94239.22;1426127;39;20567;31
2021/03/03 06:36:42;;;;;;;;;;;;;;;-1.21;89.67;94239.34;1420597;39;21183;31
2021/03/03 06:37:56;;;;;;;;;;;;;;;-1.18;89.29;94236.88;1424931;39;21212;31
2021/03/03 06:39:18;;;;;;;;;;;;;;;-1.22;89.05;94248.31;1437237;39;20218;31
2021/03/03 06:40:32;;;;;;;;;;;;;;;-1.24;89.09;94245.22;1426692;39;20214;31
2021/03/03 06:41:46;;;;;;;;;;;;;;;-1.22;88.91;94248.31;1428801;39;20205;31
2021/03/03 06:42:51;;;;;;;;;;;;;;;-1.20;88.69;94240.88;1413303;39;22530;31
2021/03/03 06:45:10;;;;;;;;;;;;;;;-1.17;88.60;94245.53;1437676;39;21204;31
2021/03/03 06:46:24;;;;;;;;;;;;;;;-1.15;89.13;94240.72;1428173;39;20237;31
2021/03/03 06:47:38;;;;;;;;;;;;;;;-1.17;88.94;94242.91;1421898;39;20211;31
2021/03/03 06:48:42;;;;;;;;;;;;;;;-1.17;89.20;94235.03;1426708;39;21235;31
2021/03/03 06:49:57;;;;;;;;;;;;;;;-1.16;89.25;94244.44;1414737;39;20243;31
2021/03/03 06:52:15;;;;;;;;;;;;;;;-1.07;88.99;94245.94;1440995;39;20293;31
2021/03/03 06:53:29;;;;;;;;;;;;;;;-1.06;88.93;94241.44;1431207;39;21722;31
2021/03/03 06:54:31;;;;;;;;;;;;;;;-1.05;88.89;94243.00;1416193;39;20230;31
2021/03/03 06:55:46;;;;;;;;;;;;;;;-1.02;88.99;94247.63;1430370;39;20210;31
2021/03/03 06:56:54;;;;;;;;;;;;;;;-0.98;89.04;94247.75;1424695;39;22332;31
2021/03/03 06:58:08;;;;;;;;;;;;;;;-1.02;88.59;94243.12;1423081;39;20256;31
2021/03/03 06:59:18;;;;;;;;;;;;;;;-1.00;88.65;94245.47;1425067;39;22325;31
2021/03/03 07:00:43;;;;;;;;;;;;;;;-0.93;88.53;94250.22;1435812;39;20221;31
2021/03/03 07:01:48;;;;;;;;;;;;;;;-0.92;88.06;94246.50;1425999;39;21164;31
2021/03/03 07:05:10;;;;;;;;;;;;;;;-0.73;87.23;94257.41;1440900;39;20719;31
2021/03/03 07:06:24;;;;;;;;;;;;;;;-0.71;86.81;94252.59;1429130;39;20250;31
2021/03/03 07:07:38;;;;;;;;;;;;;;;-0.73;86.49;94254.78;1426221;39;20237;31
2021/03/03 07:08:52;;;;;;;;;;;;;;;-0.67;86.30;94256.13;1418697;39;20575;31
2021/03/03 07:10:07;;;;;;;;;;;;;;;-0.76;86.58;94255.38;1429883;39;21175;31
2021/03/03 07:11:21;;;;;;;;;;;;;;;-0.77;87.14;94256.47;1441125;39;20222;31
2021/03/03 07:12:35;;;;;;;;;;;;;;;-0.68;86.67;94254.59;1440826;39;44997;31
2021/03/03 07:13:50;;;;;;;;;;;;;;;-0.61;86.47;94256.72;1420179;39;20339;31
2021/03/03 07:15:04;;;;;;;;;;;;;;;-0.41;85.37;94257.84;1412770;39;20643;31
2021/03/03 07:16:18;;;;;;;;;;;;;;;-0.48;85.65;94255.72;1421935;39;22149;31
2021/03/03 07:17:32;;;;;;;;;;;;;;;-0.53;85.66;94254.06;1425372;39;21271;31
2021/03/03 07:18:46;;;;;;;;;;;;;;;-0.55;85.35;94252.81;1424428;39;20199;31
2021/03/03 07:20:00;;;;;;;;;;;;;;;-0.53;85.53;94248.81;1421729;39;22130;31
2021/03/03 07:21:14;;;;;;;;;;;;;;;-0.52;85.73;94250.34;1418983;39;20242;31
2021/03/03 07:22:28;;;;;;;;;;;;;;;-0.51;85.68;94251.88;1433026;39;20232;31
2021/03/03 07:23:42;;;;;;;;;;;;;;;-0.51;85.72;94248.47;1416418;39;21203;31